Cambridge, Canada
Current Conditions -  °F | °C
As of 6:00 PM on Tuesday 25 Nov 2014 (Local Time) from CYKF Reporting Station
Light Snow Light Snow  
Wind Chill: -7°   Ceiling: 4500
Heat Index: -1°   Visibility: 9mi
Dew Point: -4°   Wind: 15mph
Humidity: 80%   Direction: 240°WSW
Pressure: 30.04"   Gusts: 22mph
Location:  43.38°N, 80.32°W
Report Text: CYKF 252300Z AUTO 24013G19KT 9SM -SN OVC045 M01/M04 A3004 RMK SLP183
Loading
Personal Weather Stations






























Interactive Weather Map New forecast layout! Learn more

10-Day Weather Forecast

Advertisements
Track Severe Weather on mobile